SBOSBO CFU / LGKR
Speedbird OnlineSpeedbird Online CFU / LGKR

Ioannis Kapodistrias International Airport
11:34 20°C

Location Kerkyra/corfu, Greece
Latitude: 39.601898193359375
Longitude: 19.911699295043945
Web Wikipedia
Altitude 2 Meter / 6 Feet
Distance 2,020 KM / 1,255 Miles
from London.
Time Zone UTC +3 hours (Europe/Athens)
Codes IATA: CFU
ICAO: LGKR
Currency £1 equals EUR 1.15
Runways
RunwayLength (m)Surface
162375Asphalt
342375Asphalt
Radio
TypeDescriptionFrequency
A/GKERKIRA RDO563.7
APPKERKIRA APP118.075
ATISATIS126.35
TWRKERKIRA TWR120.85
Live ATC
METAR LGKR 060750Z VRB02KT CAVOK 19/14 Q1025 NOSIG
TAF TAF LGKR 060500Z 0606/0706 VRB03KT 9999 FEW020 TEMPO 0612/0618 33010KT
Weather As Of 06 Oct 2022 11:34
Description Clear sky
Wind 4 km/h from North (0°)
Cloud Cover 0%
Precipitation Rain: none, Snow: none
Sunrise 07:40
Sunset 19:15
Rotations During the last 90 days there were
193 flights from LHR
192 flights to LHR


© 2017-2022 Speedbird Online